createdAt,value
2022-10-20T00:01:16.010Z,101223.56
2022-10-20T00:03:42.642Z,101242.94
2022-10-20T00:06:20.878Z,101231.91
2022-10-20T00:08:50.596Z,101216.69
2022-10-20T00:11:18.902Z,101215.47
2022-10-20T00:13:47.243Z,101113.38
2022-10-20T00:16:17.608Z,101157.56
2022-10-20T00:18:44.689Z,101140.06
2022-10-20T00:21:19.251Z,101108.13
2022-10-20T00:23:47.443Z,101194.41
2022-10-20T00:26:17.079Z,101210.59
2022-10-20T00:28:43.832Z,101212.31
2022-10-20T00:31:11.746Z,101187.97
2022-10-20T00:33:40.738Z,101129.03
2022-10-20T00:36:11.071Z,101161.88
2022-10-20T00:38:37.763Z,101155.31
2022-10-20T00:41:04.557Z,101124.69
2022-10-20T00:43:53.056Z,101142.22
2022-10-20T00:46:23.051Z,101185.97
2022-10-20T00:48:54.047Z,101181.59
2022-10-20T00:51:24.685Z,101130.28
2022-10-20T00:53:55.748Z,101178.97
2022-10-20T00:56:23.074Z,101105.41
2022-10-20T00:58:50.321Z,101128.13
2022-10-20T01:01:17.153Z,101132.69
2022-10-20T01:03:50.231Z,101132.59
2022-10-20T01:06:23.563Z,101083.75
2022-10-20T01:08:52.413Z,101118.78
2022-10-20T01:11:57.390Z,101163.13
2022-10-20T01:14:39.695Z,101110.56
2022-10-20T01:17:12.143Z,101146.06
2022-10-20T01:20:18.561Z,101141.47
2022-10-20T01:23:25.830Z,101130.03
2022-10-20T01:26:01.169Z,101099.03
2022-10-20T01:28:40.581Z,101136.78
2022-10-20T01:31:20.621Z,101071.47
2022-10-20T01:33:58.506Z,101090.31
2022-10-20T01:36:35.948Z,101125.47
2022-10-20T01:39:10.723Z,101037.44
2022-10-20T01:41:49.305Z,101014.84
2022-10-20T01:44:19.101Z,101062.69
2022-10-20T01:46:46.843Z,101043.81
2022-10-20T01:49:14.862Z,101042.06
2022-10-20T01:54:39.678Z,101097.06
2022-10-20T01:57:24.773Z,101093.69
2022-10-20T02:00:18.076Z,101090.16
2022-10-20T02:03:06.260Z,101092.47
2022-10-20T02:05:38.759Z,101092.47
2022-10-20T02:08:08.159Z,101092.47
2022-10-20T02:10:43.299Z,101055.66
2022-10-20T02:13:12.507Z,101069.16
2022-10-20T02:15:43.398Z,101063.72
2022-10-20T02:18:13.369Z,101063.72
2022-10-20T02:20:43.282Z,101011.22
2022-10-20T02:23:10.866Z,101028.41
2022-10-20T02:25:39.205Z,101029.34
2022-10-20T02:28:12.025Z,101045.88
2022-10-20T02:30:39.926Z,101028.41
2022-10-20T02:33:07.741Z,101048.97
2022-10-20T02:35:34.974Z,101065.13
2022-10-20T02:38:01.724Z,101062.06
2022-10-20T02:40:28.386Z,100995.38
2022-10-20T02:42:54.867Z,101048.88
2022-10-20T02:45:21.345Z,101039.72
2022-10-20T02:47:47.781Z,100983.66
2022-10-20T02:50:14.349Z,101034.31
2022-10-20T02:52:41.265Z,101037.00
2022-10-20T02:55:08.245Z,100959.75
2022-10-20T02:57:35.272Z,101040.94
2022-10-20T03:00:01.915Z,101020.38
2022-10-20T03:02:28.382Z,100990.75
2022-10-20T03:04:54.881Z,100954.22
2022-10-20T03:07:21.447Z,100941.25
2022-10-20T03:09:55.429Z,100997.13
2022-10-20T03:12:21.979Z,101014.59
2022-10-20T03:14:48.539Z,100997.59
2022-10-20T03:17:14.949Z,100925.59
2022-10-20T03:19:41.432Z,100958.63
2022-10-20T03:22:07.978Z,100936.22
2022-10-20T03:24:34.435Z,100989.00
2022-10-20T03:27:00.874Z,100989.28
2022-10-20T03:29:27.312Z,100930.91
2022-10-20T03:31:53.878Z,100951.81
2022-10-20T03:34:20.369Z,100954.53
2022-10-20T03:36:48.998Z,100971.63
2022-10-20T03:39:17.896Z,100978.28
2022-10-20T03:41:44.348Z,100982.66
2022-10-20T03:44:11.361Z,100997.44
2022-10-20T03:46:37.897Z,100913.81
2022-10-20T03:49:06.821Z,100991.53
2022-10-20T03:51:35.657Z,100939.13
2022-10-20T03:54:02.221Z,100979.16
2022-10-20T03:56:28.681Z,100943.19
2022-10-20T03:58:55.163Z,100970.63
2022-10-20T04:01:26.965Z,100948.00
2022-10-20T04:03:55.725Z,100953.81
2022-10-20T04:06:24.545Z,100937.56
2022-10-20T04:08:51.024Z,100909.63
2022-10-20T04:11:17.554Z,100952.38
2022-10-20T04:13:46.890Z,100974.72
2022-10-20T04:16:13.472Z,100946.97
2022-10-20T04:18:41.129Z,100868.53
2022-10-20T04:21:07.638Z,100879.75
2022-10-20T04:23:38.758Z,100885.56
2022-10-20T04:26:12.373Z,100947.28
2022-10-20T04:28:38.926Z,100928.59
2022-10-20T04:31:06.338Z,100945.22
2022-10-20T04:33:33.716Z,100930.22
2022-10-20T04:36:02.117Z,100914.03
2022-10-20T04:38:29.793Z,100899.56
2022-10-20T04:41:00.297Z,100899.56
2022-10-20T04:43:32.540Z,100801.06
2022-10-20T04:46:08.392Z,100831.78
2022-10-20T04:48:36.189Z,100931.22
2022-10-20T04:51:08.596Z,100914.78
2022-10-20T04:53:35.226Z,100838.81
2022-10-20T04:56:05.464Z,100923.28
2022-10-20T04:58:32.637Z,100915.16
2022-10-20T05:01:05.787Z,100898.66
2022-10-20T05:03:32.768Z,100880.34
2022-10-20T05:06:12.734Z,100878.94
2022-10-20T05:08:40.708Z,100860.44
2022-10-20T05:11:09.118Z,100854.28
2022-10-20T05:13:36.937Z,100890.78
2022-10-20T05:16:04.532Z,100856.19
2022-10-20T05:18:31.729Z,100880.34
2022-10-20T05:21:08.179Z,100850.38
2022-10-20T05:23:37.662Z,100866.53
2022-10-20T05:26:14.040Z,100868.50
2022-10-20T05:28:44.398Z,100869.50
2022-10-20T05:31:11.027Z,100858.66
2022-10-20T05:33:38.423Z,100852.63
2022-10-20T05:36:15.875Z,100774.25
2022-10-20T05:38:44.462Z,100846.38
2022-10-20T05:41:20.750Z,100859.63
2022-10-20T05:43:51.630Z,100845.63
2022-10-20T05:46:18.927Z,100856.25
2022-10-20T05:48:48.866Z,100791.50
2022-10-20T05:51:18.689Z,100848.63
2022-10-20T05:53:47.040Z,100842.34
2022-10-20T05:56:15.865Z,100821.63
2022-10-20T05:58:43.014Z,100756.63
2022-10-20T06:01:09.531Z,100841.13
2022-10-20T06:03:36.922Z,100856.53
2022-10-20T06:06:05.396Z,100855.69
2022-10-20T06:08:33.121Z,100799.72
2022-10-20T06:11:09.404Z,100853.25
2022-10-20T06:13:36.359Z,100847.75
2022-10-20T06:16:10.751Z,100812.47
2022-10-20T06:18:40.581Z,100761.72
2022-10-20T06:21:13.430Z,100860.06
2022-10-20T06:23:47.420Z,100791.03
2022-10-20T06:26:19.969Z,100798.94
2022-10-20T06:28:48.552Z,100865.09
2022-10-20T06:31:23.626Z,100767.31
2022-10-20T06:33:51.185Z,100855.78
2022-10-20T06:36:18.982Z,100779.78
2022-10-20T06:38:57.506Z,100853.69
2022-10-20T06:41:25.462Z,100780.56
2022-10-20T06:43:58.169Z,100866.63
2022-10-20T06:46:25.687Z,100799.09
2022-10-20T06:48:55.027Z,100807.94
2022-10-20T06:51:26.970Z,100785.19
2022-10-20T06:53:58.959Z,100797.53
2022-10-20T06:56:34.541Z,100834.25
2022-10-20T06:59:02.601Z,100859.53
2022-10-20T07:01:32.085Z,100821.94
2022-10-20T07:04:00.457Z,100863.63
2022-10-20T07:06:35.324Z,100827.16
2022-10-20T07:09:08.174Z,100781.50
2022-10-20T07:11:35.134Z,100762.78
2022-10-20T07:14:02.809Z,100886.47
2022-10-20T07:16:32.775Z,100830.44
2022-10-20T07:19:00.445Z,100830.50
2022-10-20T07:21:32.402Z,100875.44
2022-10-20T07:24:03.754Z,100846.81
2022-10-20T07:26:32.949Z,100795.66
2022-10-20T07:29:01.431Z,100802.75
2022-10-20T07:31:31.554Z,100800.59
2022-10-20T07:34:24.025Z,100842.88
2022-10-20T07:36:57.864Z,100781.81
2022-10-20T07:39:25.344Z,100759.44
2022-10-20T07:41:52.533Z,100857.16
2022-10-20T07:44:22.859Z,100754.34
2022-10-20T07:46:50.419Z,100765.44
2022-10-20T07:52:06.610Z,100830.91
2022-10-20T07:54:45.494Z,100869.69
2022-10-20T07:57:11.959Z,100836.78
2022-10-20T07:59:38.586Z,100847.72
2022-10-20T08:02:05.309Z,100785.25
2022-10-20T08:04:32.123Z,100782.34
2022-10-20T08:07:00.116Z,100785.13
2022-10-20T08:09:26.754Z,100788.00
2022-10-20T08:11:55.517Z,100829.53
2022-10-20T08:14:27.230Z,100742.13
2022-10-20T08:16:59.843Z,100759.91
2022-10-20T08:19:35.718Z,100741.97
2022-10-20T08:22:02.606Z,100810.13
2022-10-20T08:24:29.137Z,100721.88
2022-10-20T08:26:55.683Z,100772.34
2022-10-20T08:29:26.431Z,100768.19
2022-10-20T08:31:52.992Z,100751.69
2022-10-20T08:34:32.783Z,100774.66
2022-10-20T08:37:00.228Z,100754.50
2022-10-20T08:39:26.951Z,100772.84
2022-10-20T08:42:08.680Z,100746.66
2022-10-20T08:44:50.127Z,100803.28
2022-10-20T08:47:33.627Z,100780.69
2022-10-20T08:50:24.139Z,100690.13
2022-10-20T08:53:03.544Z,100774.13
2022-10-20T08:55:33.530Z,100832.81
2022-10-20T08:58:12.615Z,100819.81
2022-10-20T09:00:40.406Z,100774.78
2022-10-20T09:03:17.895Z,100826.31
2022-10-20T09:05:50.807Z,100772.66
2022-10-20T09:08:30.450Z,100789.38
2022-10-20T09:10:57.181Z,100756.34
2022-10-20T09:13:29.359Z,100784.19
2022-10-20T09:16:40.617Z,100767.72
2022-10-20T09:19:22.880Z,100757.91
2022-10-20T09:21:57.392Z,100836.50
2022-10-20T09:24:31.469Z,100818.06
2022-10-20T09:27:44.228Z,100788.66
2022-10-20T09:30:33.810Z,100782.66
2022-10-20T09:33:01.055Z,100759.00
2022-10-20T09:35:31.566Z,100818.59
2022-10-20T09:38:10.179Z,100852.50
2022-10-20T09:41:00.004Z,100767.69
2022-10-20T09:43:39.074Z,100754.94
2022-10-20T09:46:09.373Z,100772.16
2022-10-20T09:51:31.802Z,100730.75
2022-10-20T09:54:20.194Z,100727.31
2022-10-20T09:56:49.410Z,100722.69
2022-10-20T09:59:35.605Z,100764.94
2022-10-20T10:02:26.776Z,100827.41
2022-10-20T10:04:57.796Z,100741.25
2022-10-20T10:07:27.388Z,100840.78
2022-10-20T10:10:02.531Z,100847.47
2022-10-20T10:12:38.379Z,100723.03
2022-10-20T10:15:26.861Z,100845.63
2022-10-20T10:17:57.584Z,100665.59
2022-10-20T10:20:42.446Z,100757.81
2022-10-20T10:23:23.106Z,100849.41
2022-10-20T10:26:09.304Z,100772.56
2022-10-20T10:28:49.296Z,100681.44
2022-10-20T10:31:28.105Z,100772.06
2022-10-20T10:34:39.406Z,100824.66
2022-10-20T10:37:18.753Z,100731.41
2022-10-20T10:39:47.729Z,100755.41
2022-10-20T10:42:42.969Z,100773.81
2022-10-20T10:45:25.873Z,100808.72
2022-10-20T10:48:06.253Z,100724.94
2022-10-20T10:50:53.149Z,100805.97
2022-10-20T10:53:42.384Z,100744.63
2022-10-20T10:56:22.340Z,100726.19
2022-10-20T10:59:07.805Z,100696.03
2022-10-20T11:01:56.258Z,100815.97
2022-10-20T11:05:06.481Z,100729.38
2022-10-20T11:07:34.934Z,100843.31
2022-10-20T11:10:05.030Z,100837.28
2022-10-20T11:13:02.247Z,100798.31
2022-10-20T11:15:50.708Z,100839.13
2022-10-20T11:18:51.518Z,100821.19
2022-10-20T11:21:40.404Z,100843.53
2022-10-20T11:24:48.194Z,100834.34
2022-10-20T11:27:36.568Z,100786.38
2022-10-20T11:30:16.363Z,100830.38
2022-10-20T11:33:09.164Z,100828.28
2022-10-20T11:35:55.928Z,100655.03
2022-10-20T11:46:36.234Z,100814.09
2022-10-20T11:50:00.986Z,100695.13
2022-10-20T15:04:32.151Z,100643.94
2022-10-20T15:07:04.786Z,100590.22
2022-10-20T15:09:40.568Z,100625.78
2022-10-20T15:12:28.874Z,100564.91
2022-10-20T15:15:09.932Z,100571.41
2022-10-20T15:17:48.283Z,100642.06
2022-10-20T15:20:36.355Z,100605.47
2022-10-20T15:23:07.879Z,100578.09
2022-10-20T15:26:14.057Z,100638.94
2022-10-20T15:28:46.513Z,100629.94
2022-10-20T15:31:24.136Z,100640.41
2022-10-20T15:34:01.611Z,100561.59
2022-10-20T15:36:32.899Z,100559.94
2022-10-20T15:39:00.973Z,100591.47
2022-10-20T15:41:30.455Z,100635.81
2022-10-20T15:44:02.396Z,100629.09
2022-10-20T15:46:29.084Z,100490.75
2022-10-20T15:48:55.733Z,100536.28
2022-10-20T15:51:27.243Z,100585.22
2022-10-20T15:54:05.058Z,100585.84
2022-10-20T15:56:40.931Z,100600.69
2022-10-20T15:59:15.426Z,100580.19
2022-10-20T16:01:42.103Z,100493.66
2022-10-20T16:04:27.582Z,100548.41
2022-10-20T16:06:59.105Z,100602.13
2022-10-20T16:09:28.651Z,100496.38
2022-10-20T16:11:58.324Z,100513.72
2022-10-20T16:14:27.536Z,100501.59
2022-10-20T16:16:54.410Z,100496.16
2022-10-20T16:19:20.991Z,100548.41
2022-10-20T16:21:47.526Z,100531.66
2022-10-20T16:24:16.466Z,100540.25
2022-10-20T16:26:49.321Z,100506.19
2022-10-20T16:29:15.818Z,100555.50
2022-10-20T16:31:42.287Z,100517.06
2022-10-20T16:34:08.837Z,100505.13
2022-10-20T16:36:35.338Z,100517.69
2022-10-20T16:39:04.519Z,100549.00
2022-10-20T16:41:31.005Z,100580.16
2022-10-20T16:44:00.971Z,100516.63
2022-10-20T16:46:27.960Z,100555.50
2022-10-20T16:49:00.109Z,100512.41
2022-10-20T16:51:26.780Z,100536.22
2022-10-20T16:53:56.383Z,100536.88
2022-10-20T16:56:25.224Z,100573.03
2022-10-20T16:58:52.270Z,100507.38
2022-10-20T17:01:21.394Z,100514.09
2022-10-20T17:03:50.803Z,100503.19
2022-10-20T17:06:21.223Z,100544.59
2022-10-20T17:08:54.002Z,100529.31
2022-10-20T17:11:27.865Z,100577.19
2022-10-20T17:13:55.371Z,100439.66
2022-10-20T17:16:28.389Z,100564.25
2022-10-20T17:18:57.486Z,100523.69
2022-10-20T17:21:33.718Z,100482.72
2022-10-20T17:24:01.100Z,100585.97
2022-10-20T17:26:30.419Z,100571.75
2022-10-20T17:28:59.228Z,100498.19
2022-10-20T17:31:29.340Z,100585.13
2022-10-20T17:34:00.218Z,100576.56
2022-10-20T17:36:30.326Z,100496.72
2022-10-20T17:39:01.540Z,100527.00
2022-10-20T17:41:28.648Z,100576.78
2022-10-20T17:44:01.693Z,100511.34
2022-10-20T17:46:28.599Z,100507.16
2022-10-20T17:48:55.195Z,100499.44
2022-10-20T17:51:26.777Z,100592.25
2022-10-20T17:53:57.839Z,100557.53
2022-10-20T17:56:33.803Z,100583.47
2022-10-20T17:59:42.515Z,100545.47
2022-10-20T18:01:55.888Z,100575.78
2022-10-20T18:04:22.333Z,100594.56
2022-10-20T18:06:49.577Z,100574.09
2022-10-20T18:09:18.038Z,100533.09
2022-10-20T18:11:51.225Z,100476.47
2022-10-20T18:14:18.732Z,100491.09
2022-10-20T18:16:49.109Z,100571.16
2022-10-20T18:19:18.209Z,100526.22
2022-10-20T18:21:45.468Z,100539.19
2022-10-20T18:24:15.076Z,100589.13
2022-10-20T18:26:42.779Z,100522.63
2022-10-20T18:29:11.217Z,100581.81
2022-10-20T18:31:41.969Z,100576.81
2022-10-20T18:34:23.033Z,100576.34
2022-10-20T18:36:50.959Z,100551.28
2022-10-20T18:39:17.774Z,100515.56
2022-10-20T18:41:45.424Z,100540.44
2022-10-20T18:44:17.168Z,100440.34
2022-10-20T18:46:46.207Z,100487.16
2022-10-20T18:49:15.992Z,100550.06
2022-10-20T18:51:46.894Z,100535.66
2022-10-20T18:54:19.065Z,100472.53
2022-10-20T18:56:47.057Z,100527.06
2022-10-20T18:59:16.124Z,100471.50
2022-10-20T19:01:42.967Z,100494.47
2022-10-20T19:04:10.747Z,100493.63
2022-10-20T19:09:49.185Z,100434.53
2022-10-20T19:12:18.887Z,100420.53
2022-10-20T19:14:45.538Z,100448.13
2022-10-20T19:17:13.620Z,100442.47
2022-10-20T19:19:41.719Z,100441.63
2022-10-20T19:22:08.283Z,100497.81
2022-10-20T19:24:42.612Z,100490.53
2022-10-20T19:29:56.043Z,100401.56
2022-10-20T19:32:22.696Z,100475.28
2022-10-20T19:34:49.190Z,100457.31
2022-10-20T19:37:15.715Z,100421.44
2022-10-20T19:39:42.832Z,100487.63
2022-10-20T19:42:10.912Z,100423.09
2022-10-20T19:44:38.098Z,100481.13
2022-10-20T19:47:06.324Z,100420.56
2022-10-20T19:49:33.093Z,100446.91
2022-10-20T19:51:59.922Z,100455.66
2022-10-20T19:54:31.497Z,100425.16
2022-10-20T19:56:57.988Z,100410.97
2022-10-20T19:59:24.978Z,100430.59
2022-10-20T20:01:52.568Z,100431.44
2022-10-20T20:04:19.562Z,100477.59
2022-10-20T20:06:46.119Z,100426.22
2022-10-20T20:09:15.405Z,100440.84
2022-10-20T20:11:42.708Z,100461.28
2022-10-20T20:14:15.568Z,100423.91
2022-10-20T20:19:16.567Z,100423.28
2022-10-20T20:21:43.332Z,100394.69
2022-10-20T20:24:12.426Z,100423.09
2022-10-20T20:26:38.963Z,100427.47
2022-10-20T20:29:06.248Z,100452.31
2022-10-20T20:31:33.660Z,100438.97
2022-10-20T20:34:00.839Z,100440.81
2022-10-20T20:36:28.210Z,100415.97
2022-10-20T20:38:59.454Z,100348.34
2022-10-20T20:41:28.253Z,100428.09
2022-10-20T20:43:55.953Z,100365.47
2022-10-20T20:46:24.342Z,100350.03
2022-10-20T20:48:51.205Z,100444.59
2022-10-20T20:51:18.103Z,100358.38
2022-10-20T20:53:44.654Z,100423.91
2022-10-20T20:56:16.193Z,100366.53
2022-10-20T20:58:46.694Z,100401.78
2022-10-20T21:01:17.181Z,100419.75
2022-10-20T21:03:44.363Z,100377.97
2022-10-20T21:06:13.105Z,100378.00
2022-10-20T21:08:42.435Z,100417.63
2022-10-20T21:11:12.457Z,100416.38
2022-10-20T21:13:40.041Z,100398.66
2022-10-20T21:16:29.724Z,100422.22
2022-10-20T21:18:58.801Z,100425.56
2022-10-20T21:21:36.792Z,100436.19
2022-10-20T21:24:04.969Z,100402.19
2022-10-20T21:26:32.488Z,100386.94
2022-10-20T21:28:59.341Z,100429.13
2022-10-20T21:31:27.667Z,100432.44
2022-10-20T21:34:02.881Z,100443.09
2022-10-20T21:36:32.263Z,100405.13
2022-10-20T21:38:59.582Z,100407.63
2022-10-20T21:41:30.893Z,100443.34
2022-10-20T21:43:59.207Z,100433.72
2022-10-20T21:46:28.706Z,100440.22
2022-10-20T21:48:57.628Z,100452.72
2022-10-20T21:51:27.024Z,100450.84
2022-10-20T21:53:59.069Z,100442.69
2022-10-20T21:56:25.914Z,100436.81
2022-10-20T21:58:53.402Z,100417.84
2022-10-20T22:01:23.283Z,100462.97
2022-10-20T22:03:51.266Z,100459.19
2022-10-20T22:06:20.431Z,100466.09
2022-10-20T22:08:49.505Z,100406.53
2022-10-20T22:11:19.170Z,100378.16
2022-10-20T22:13:47.166Z,100387.16
2022-10-20T22:16:16.493Z,100413.25
2022-10-20T22:18:43.261Z,100462.53
2022-10-20T22:21:15.428Z,100464.81
2022-10-20T22:23:43.264Z,100445.38
2022-10-20T22:26:10.298Z,100446.22
2022-10-20T22:28:37.673Z,100368.31
2022-10-20T22:31:05.438Z,100379.19
2022-10-20T22:33:32.312Z,100359.09
2022-10-20T22:35:58.862Z,100345.34
2022-10-20T22:38:25.356Z,100400.41
2022-10-20T22:40:51.819Z,100398.09
2022-10-20T22:43:18.354Z,100407.03
2022-10-20T22:45:44.825Z,100323.16
2022-10-20T22:48:11.319Z,100399.50
2022-10-20T22:50:37.769Z,100388.47
2022-10-20T22:53:04.274Z,100366.94
2022-10-20T22:55:30.769Z,100407.03
2022-10-20T23:00:23.781Z,100341.91
2022-10-20T23:02:50.306Z,100382.41
2022-10-20T23:05:16.863Z,100400.72
2022-10-20T23:07:43.385Z,100329.63
2022-10-20T23:10:10.204Z,100410.13
2022-10-20T23:12:37.071Z,100417.59
2022-10-20T23:15:04.683Z,100389.44
2022-10-20T23:17:31.256Z,100354.84
2022-10-20T23:19:57.750Z,100409.25
2022-10-20T23:22:24.373Z,100395.66
2022-10-20T23:24:50.888Z,100366.88
2022-10-20T23:27:17.433Z,100332.03
2022-10-20T23:29:43.914Z,100338.69
2022-10-20T23:32:10.462Z,100332.66
2022-10-20T23:34:37.010Z,100346.78
2022-10-20T23:37:03.505Z,100261.28
2022-10-20T23:39:29.985Z,100299.94
2022-10-20T23:41:56.481Z,100235.78
2022-10-20T23:44:22.979Z,100225.06
2022-10-20T23:46:49.483Z,100240.34
2022-10-20T23:49:16.026Z,100312.91
2022-10-20T23:51:42.519Z,100285.84
2022-10-20T23:54:09.103Z,100303.13
2022-10-20T23:56:35.564Z,100258.31
2022-10-20T23:59:02.064Z,100337.78
